createdAt,value
2019-04-16T00:02:18.497Z,41.34
2019-04-16T00:05:07.370Z,41.34
2019-04-16T00:07:47.077Z,41.52
2019-04-16T00:10:44.574Z,41.69
2019-04-16T00:13:35.524Z,41.69
2019-04-16T00:16:05.036Z,41.82
2019-04-16T00:18:34.480Z,41.61
2019-04-16T00:21:22.669Z,41.60
2019-04-16T00:24:18.557Z,41.63
2019-04-16T00:26:57.930Z,41.98
2019-04-16T00:29:25.009Z,41.72
2019-04-16T00:31:57.782Z,42.00
2019-04-16T00:34:27.317Z,42.00
2019-04-16T00:36:57.067Z,42.01
2019-04-16T00:39:27.112Z,41.95
2019-04-16T00:41:57.434Z,42.04
2019-04-16T00:44:27.277Z,42.07
2019-04-16T00:46:57.137Z,42.18
2019-04-16T00:49:27.216Z,42.22
2019-04-16T00:51:57.847Z,42.39
2019-04-16T00:54:27.614Z,42.35
2019-04-16T00:56:57.201Z,42.58
2019-04-16T00:59:26.950Z,42.88
2019-04-16T01:01:57.704Z,42.91
2019-04-16T01:04:28.119Z,43.05
2019-04-16T01:06:57.664Z,42.92
2019-04-16T01:09:27.514Z,42.89
2019-04-16T01:11:57.199Z,42.98
2019-04-16T01:14:27.475Z,43.06
2019-04-16T01:16:57.667Z,43.20
2019-04-16T01:19:28.498Z,43.15
2019-04-16T01:21:58.252Z,43.30
2019-04-16T01:24:27.677Z,43.58
2019-04-16T01:26:59.116Z,43.79
2019-04-16T01:29:33.638Z,43.93
2019-04-16T01:32:27.724Z,44.19
2019-04-16T01:35:19.805Z,43.95
2019-04-16T01:38:07.005Z,43.90
2019-04-16T01:40:42.752Z,44.04
2019-04-16T01:43:12.415Z,43.93
2019-04-16T01:45:41.901Z,43.73
2019-04-16T01:48:11.562Z,43.87
2019-04-16T01:50:43.769Z,43.83
2019-04-16T01:53:13.022Z,44.01
2019-04-16T01:55:42.732Z,43.96
2019-04-16T01:58:12.409Z,44.02
2019-04-16T02:00:42.061Z,44.21
2019-04-16T02:03:11.558Z,44.32
2019-04-16T02:05:41.111Z,44.27
2019-04-16T02:08:10.685Z,44.30
2019-04-16T02:10:40.216Z,44.50
2019-04-16T02:13:09.683Z,44.54
2019-04-16T02:15:41.212Z,44.61
2019-04-16T02:18:10.756Z,44.88
2019-04-16T02:20:40.320Z,44.84
2019-04-16T02:23:09.958Z,44.93
2019-04-16T02:25:39.507Z,45.14
2019-04-16T02:28:09.384Z,45.23
2019-04-16T02:30:39.811Z,45.28
2019-04-16T02:33:09.427Z,45.44
2019-04-16T02:35:38.971Z,45.73
2019-04-16T02:38:12.259Z,45.66
2019-04-16T02:40:40.029Z,45.68
2019-04-16T02:43:09.871Z,46.15
2019-04-16T02:45:39.502Z,46.24
2019-04-16T02:48:15.269Z,46.55
2019-04-16T02:50:43.922Z,46.59
2019-04-16T02:53:31.326Z,46.65
2019-04-16T02:56:20.212Z,47.24
2019-04-16T02:58:55.081Z,47.08
2019-04-16T03:01:42.412Z,47.30
2019-04-16T03:04:16.210Z,47.22
2019-04-16T03:06:45.966Z,48.12
2019-04-16T03:09:15.718Z,48.89
2019-04-16T03:11:45.555Z,48.94
2019-04-16T03:14:16.738Z,49.49
2019-04-16T03:17:11.876Z,49.39
2019-04-16T03:19:42.955Z,49.08
2019-04-16T03:22:12.391Z,49.45
2019-04-16T03:24:42.021Z,49.75
2019-04-16T03:27:11.663Z,49.60
2019-04-16T03:29:41.073Z,49.61
2019-04-16T03:32:14.275Z,49.00
2019-04-16T03:34:41.870Z,48.75
2019-04-16T03:37:11.350Z,48.64
2019-04-16T03:39:43.781Z,48.59
2019-04-16T03:42:12.609Z,48.52
2019-04-16T03:44:42.045Z,48.61
2019-04-16T03:47:11.945Z,48.65
2019-04-16T03:49:41.694Z,49.04
2019-04-16T03:52:11.226Z,48.99
2019-04-16T03:54:40.968Z,48.98
2019-04-16T03:57:10.984Z,48.99
2019-04-16T03:59:40.801Z,49.15
2019-04-16T04:02:10.621Z,49.06
2019-04-16T04:04:40.242Z,49.49
2019-04-16T04:07:12.027Z,49.35
2019-04-16T04:09:41.317Z,49.43
2019-04-16T04:12:13.341Z,49.62
2019-04-16T04:14:42.199Z,49.81
2019-04-16T04:17:12.144Z,49.70
2019-04-16T04:19:43.548Z,49.97
2019-04-16T04:22:12.984Z,50.17
2019-04-16T04:24:42.378Z,50.23
2019-04-16T04:27:13.960Z,50.39
2019-04-16T04:29:46.133Z,50.62
2019-04-16T04:32:15.204Z,50.82
2019-04-16T04:34:45.402Z,50.72
2019-04-16T04:37:16.070Z,51.09
2019-04-16T04:39:46.239Z,51.03
2019-04-16T04:42:18.619Z,51.25
2019-04-16T04:44:47.802Z,51.50
2019-04-16T04:47:19.270Z,51.30
2019-04-16T04:49:48.749Z,51.22
2019-04-16T04:52:18.556Z,51.18
2019-04-16T04:54:48.007Z,51.17
2019-04-16T04:57:17.498Z,51.14
2019-04-16T04:59:47.436Z,51.47
2019-04-16T05:02:17.057Z,51.83
2019-04-16T05:04:53.254Z,51.54
2019-04-16T05:07:25.737Z,51.42
2019-04-16T05:09:54.643Z,51.57
2019-04-16T05:12:24.179Z,51.36
2019-04-16T05:14:58.634Z,51.33
2019-04-16T05:17:29.396Z,51.36
2019-04-16T05:20:01.966Z,51.35
2019-04-16T05:22:33.223Z,51.13
2019-04-16T05:25:03.332Z,50.88
2019-04-16T05:27:32.836Z,50.85
2019-04-16T05:30:04.500Z,50.71
2019-04-16T05:32:34.426Z,50.41
2019-04-16T05:35:09.200Z,50.22
2019-04-16T05:37:35.604Z,50.24
2019-04-16T05:40:05.987Z,50.23
2019-04-16T05:42:35.530Z,50.25
2019-04-16T05:45:06.411Z,49.95
2019-04-16T05:47:36.036Z,49.94
2019-04-16T05:50:06.068Z,49.84
2019-04-16T05:52:36.579Z,49.85
2019-04-16T05:55:25.489Z,50.37
2019-04-16T05:57:58.152Z,50.09
2019-04-16T06:00:33.946Z,49.99
2019-04-16T06:03:03.767Z,49.62
2019-04-16T06:05:33.243Z,49.64
2019-04-16T06:08:12.457Z,49.71
2019-04-16T06:10:41.909Z,49.64
2019-04-16T06:13:34.889Z,49.60
2019-04-16T06:16:14.307Z,49.32
2019-04-16T06:18:56.688Z,49.18
2019-04-16T06:21:39.818Z,49.22
2019-04-16T06:24:40.331Z,49.20
2019-04-16T06:27:29.062Z,48.89
2019-04-16T06:30:21.153Z,48.86
2019-04-16T06:32:57.168Z,48.86
2019-04-16T06:35:43.315Z,48.78
2019-04-16T06:38:17.843Z,48.94
2019-04-16T06:41:12.519Z,48.96
2019-04-16T06:43:44.457Z,48.48
2019-04-16T06:46:49.639Z,48.40
2019-04-16T06:49:39.431Z,48.32
2019-04-16T06:52:29.679Z,48.07
2019-04-16T06:55:27.981Z,47.93
2019-04-16T06:58:28.523Z,47.75
2019-04-16T07:01:22.518Z,47.71
2019-04-16T07:03:58.272Z,47.21
2019-04-16T07:06:50.694Z,47.25
2019-04-16T07:09:35.137Z,46.91
2019-04-16T07:12:01.803Z,46.83
2019-04-16T07:14:31.453Z,46.91
2019-04-16T07:17:01.145Z,46.54
2019-04-16T07:19:30.392Z,46.39
2019-04-16T07:22:00.181Z,46.16
2019-04-16T07:24:31.420Z,46.08
2019-04-16T07:27:01.791Z,46.23
2019-04-16T07:29:51.821Z,46.14
2019-04-16T07:32:52.383Z,46.02
2019-04-16T07:35:44.080Z,45.96
2019-04-16T07:38:47.870Z,46.00
2019-04-16T07:41:27.316Z,45.56
2019-04-16T07:44:36.462Z,45.35
2019-04-16T07:47:20.052Z,45.30
2019-04-16T07:50:11.878Z,45.07
2019-04-16T07:52:58.638Z,45.18
2019-04-16T07:55:35.816Z,45.20
2019-04-16T07:58:05.282Z,45.09
2019-04-16T08:00:40.291Z,44.96
2019-04-16T08:03:06.450Z,44.68
2019-04-16T08:05:37.735Z,44.64
2019-04-16T08:08:11.230Z,44.61
2019-04-16T08:10:40.731Z,44.61
2019-04-16T08:13:20.927Z,44.11
2019-04-16T08:15:50.460Z,44.11
2019-04-16T08:18:20.196Z,44.35
2019-04-16T08:21:01.184Z,44.35
2019-04-16T08:23:30.673Z,41.99
2019-04-16T08:26:04.076Z,41.57
2019-04-16T08:28:32.877Z,42.05
2019-04-16T08:31:03.018Z,41.84
2019-04-16T08:33:32.509Z,41.37
2019-04-16T08:36:02.018Z,41.37
2019-04-16T08:38:34.828Z,41.60
2019-04-16T08:41:02.950Z,41.45
2019-04-16T08:43:32.617Z,40.95
2019-04-16T08:46:02.291Z,41.32
2019-04-16T08:48:31.739Z,40.93
2019-04-16T08:51:04.309Z,41.02
2019-04-16T08:53:35.456Z,40.90
2019-04-16T08:56:04.359Z,41.26
2019-04-16T08:58:35.642Z,41.50
2019-04-16T09:01:06.685Z,41.27
2019-04-16T09:03:36.334Z,40.90
2019-04-16T09:06:06.863Z,40.55
2019-04-16T09:08:55.804Z,40.71
2019-04-16T09:11:28.340Z,40.85
2019-04-16T09:14:01.032Z,40.85
2019-04-16T09:16:31.810Z,40.92
2019-04-16T09:19:06.418Z,41.18
2019-04-16T09:21:35.897Z,41.59
2019-04-16T09:24:22.468Z,41.74
2019-04-16T09:27:06.746Z,40.17
2019-04-16T09:29:49.595Z,40.17
2019-04-16T09:32:49.836Z,40.39
2019-04-16T09:35:34.094Z,40.48
2019-04-16T09:38:22.839Z,40.48
2019-04-16T09:41:11.683Z,40.68
2019-04-16T09:43:46.529Z,40.38
2019-04-16T09:46:22.229Z,39.97
2019-04-16T09:48:50.012Z,39.88
2019-04-16T09:51:20.771Z,39.83
2019-04-16T09:53:50.394Z,39.83
2019-04-16T09:56:29.975Z,39.77
2019-04-16T09:59:19.857Z,39.55
2019-04-16T10:01:56.442Z,39.57
2019-04-16T10:04:26.254Z,39.57
2019-04-16T10:06:56.137Z,39.45
2019-04-16T10:09:25.838Z,39.27
2019-04-16T10:11:57.253Z,39.12
2019-04-16T10:14:26.668Z,38.76
2019-04-16T10:16:56.498Z,39.10
2019-04-16T10:19:26.199Z,38.80
2019-04-16T10:21:55.807Z,38.52
2019-04-16T10:24:47.617Z,38.21
2019-04-16T10:27:31.298Z,38.01
2019-04-16T10:30:00.150Z,38.48
2019-04-16T10:32:30.044Z,38.12
2019-04-16T10:34:59.431Z,38.12
2019-04-16T10:37:29.141Z,38.49
2019-04-16T10:40:05.057Z,38.66
2019-04-16T10:43:06.917Z,39.05
2019-04-16T10:45:58.078Z,39.71
2019-04-16T10:48:46.768Z,41.67
2019-04-16T10:51:33.879Z,44.17
2019-04-16T10:54:12.308Z,44.17
2019-04-16T10:57:00.678Z,47.15
2019-04-16T10:59:39.808Z,46.93
2019-04-16T11:02:28.741Z,46.93
2019-04-16T11:05:19.000Z,46.82
2019-04-16T11:07:49.419Z,47.42
2019-04-16T11:10:19.090Z,47.42
2019-04-16T11:12:48.488Z,46.80
2019-04-16T11:15:23.427Z,46.49
2019-04-16T11:17:55.426Z,45.99
2019-04-16T11:20:25.797Z,45.80
2019-04-16T11:22:55.334Z,45.95
2019-04-16T11:25:25.153Z,44.40
2019-04-16T11:27:55.368Z,44.91
2019-04-16T11:30:48.760Z,44.66
2019-04-16T11:33:17.745Z,44.47
2019-04-16T11:35:52.816Z,42.73
2019-04-16T11:38:18.992Z,41.99
2019-04-16T11:40:48.449Z,41.28
2019-04-16T11:43:18.026Z,41.25
2019-04-16T11:45:48.076Z,41.06
2019-04-16T11:48:17.590Z,41.06
2019-04-16T11:50:47.449Z,39.68
2019-04-16T11:53:17.214Z,39.75
2019-04-16T11:55:46.703Z,38.42
2019-04-16T11:58:26.353Z,38.42
2019-04-16T12:01:04.726Z,36.88
2019-04-16T12:03:50.644Z,36.41
2019-04-16T12:06:34.426Z,35.83
2019-04-16T12:09:32.556Z,36.05
2019-04-16T12:12:23.690Z,35.66
2019-04-16T12:15:14.982Z,34.44
2019-04-16T12:17:56.018Z,33.05
2019-04-16T12:20:44.102Z,33.95
2019-04-16T12:23:31.415Z,33.95
2019-04-16T12:26:18.589Z,33.95
2019-04-16T12:29:11.020Z,34.40
2019-04-16T12:31:57.135Z,34.58
2019-04-16T12:34:51.151Z,34.33
2019-04-16T12:37:30.509Z,34.33
2019-04-16T12:40:09.723Z,34.18
2019-04-16T12:42:48.493Z,34.06
2019-04-16T12:45:40.137Z,33.43
2019-04-16T12:48:33.378Z,33.65
2019-04-16T12:51:08.102Z,33.74
2019-04-16T12:53:55.266Z,33.16
2019-04-16T12:56:42.747Z,33.69
2019-04-16T12:59:15.456Z,33.91
2019-04-16T13:02:21.904Z,33.78
2019-04-16T13:05:09.345Z,33.92
2019-04-16T13:08:03.752Z,34.17
2019-04-16T13:10:55.451Z,34.10
2019-04-16T13:13:47.970Z,33.55
2019-04-16T13:16:25.372Z,33.73
2019-04-16T13:19:31.706Z,33.71
2019-04-16T13:22:04.288Z,33.66
2019-04-16T13:24:46.681Z,33.63
2019-04-16T13:27:18.824Z,33.61
2019-04-16T13:29:48.467Z,33.44
2019-04-16T13:32:17.991Z,33.47
2019-04-16T13:34:47.880Z,33.47
2019-04-16T13:37:19.686Z,33.55
2019-04-16T13:39:59.501Z,33.25
2019-04-16T13:42:28.453Z,33.26
2019-04-16T13:45:15.770Z,33.26
2019-04-16T13:47:45.957Z,33.32
2019-04-16T13:50:24.228Z,33.16
2019-04-16T13:52:58.420Z,33.28
2019-04-16T13:55:32.767Z,33.36
2019-04-16T13:58:24.348Z,33.19
2019-04-16T14:00:58.814Z,33.19
2019-04-16T14:03:28.399Z,33.09
2019-04-16T14:05:59.105Z,32.88
2019-04-16T14:08:29.115Z,32.86
2019-04-16T14:10:59.136Z,32.69
2019-04-16T14:13:28.689Z,32.85
2019-04-16T14:15:58.824Z,32.77
2019-04-16T14:18:29.594Z,32.70
2019-04-16T14:21:00.470Z,32.57
2019-04-16T14:23:30.048Z,32.83
2019-04-16T14:25:59.570Z,32.95
2019-04-16T14:28:34.287Z,33.06
2019-04-16T14:31:00.959Z,33.05
2019-04-16T14:33:46.336Z,32.91
2019-04-16T14:36:15.899Z,33.12
2019-04-16T14:38:49.877Z,32.88
2019-04-16T14:41:19.551Z,32.87
2019-04-16T14:43:55.069Z,32.96
2019-04-16T14:46:28.192Z,32.96
2019-04-16T14:48:56.508Z,32.96
2019-04-16T14:51:26.212Z,32.07
2019-04-16T14:54:01.894Z,32.50
2019-04-16T14:56:40.286Z,32.67
2019-04-16T14:59:33.729Z,32.65
2019-04-16T15:02:11.078Z,32.81
2019-04-16T15:04:58.410Z,32.93
2019-04-16T15:07:36.206Z,33.02
2019-04-16T15:10:28.784Z,33.05
2019-04-16T15:13:22.113Z,32.96
2019-04-16T15:16:08.235Z,33.08
2019-04-16T15:18:52.854Z,33.10
2019-04-16T15:21:50.581Z,32.99
2019-04-16T15:24:29.692Z,33.19
2019-04-16T15:27:07.342Z,33.25
2019-04-16T15:30:00.651Z,33.33
2019-04-16T15:32:53.079Z,33.30
2019-04-16T15:35:33.921Z,33.20
2019-04-16T15:38:20.946Z,33.02
2019-04-16T15:40:52.416Z,32.81
2019-04-16T15:43:39.735Z,32.67
2019-04-16T15:46:27.806Z,32.63
2019-04-16T15:49:22.682Z,32.43
2019-04-16T15:58:51.740Z,32.36
2019-04-16T16:01:38.941Z,32.10
2019-04-16T16:04:17.443Z,32.40
2019-04-16T16:07:09.322Z,32.27
2019-04-16T16:10:22.212Z,32.72
2019-04-16T16:12:53.616Z,32.67
2019-04-16T16:15:23.722Z,32.64
2019-04-16T16:17:53.348Z,32.65
2019-04-16T16:20:23.281Z,32.71
2019-04-16T16:22:54.595Z,32.83
2019-04-16T16:25:24.658Z,32.92
2019-04-16T16:27:54.321Z,33.06
2019-04-16T16:30:24.390Z,33.00
2019-04-16T16:32:54.442Z,33.04
2019-04-16T16:35:24.628Z,33.06
2019-04-16T16:37:56.473Z,32.99
2019-04-16T16:40:26.239Z,33.09
2019-04-16T16:42:55.878Z,33.01
2019-04-16T16:45:41.251Z,33.00
2019-04-16T16:48:10.836Z,33.12
2019-04-16T16:50:41.060Z,33.11
2019-04-16T16:53:23.211Z,33.16
2019-04-16T16:55:57.885Z,33.12
2019-04-16T16:58:46.764Z,33.19
2019-04-16T17:01:40.926Z,33.27
2019-04-16T17:04:14.025Z,33.24
2019-04-16T17:06:43.822Z,33.27
2019-04-16T17:09:27.115Z,33.27
2019-04-16T17:11:56.840Z,33.32
2019-04-16T17:14:26.758Z,33.08
2019-04-16T17:17:11.342Z,32.74
2019-04-16T17:19:28.375Z,32.67
2019-04-16T17:21:58.101Z,32.36
2019-04-16T17:24:27.743Z,32.55
2019-04-16T17:26:57.748Z,32.49
2019-04-16T17:29:27.318Z,32.60
2019-04-16T17:31:56.828Z,32.55
2019-04-16T17:34:26.828Z,32.69
2019-04-16T17:36:56.636Z,32.75
2019-04-16T17:39:54.668Z,32.82
2019-04-16T17:42:39.075Z,32.78
2019-04-16T17:45:33.972Z,32.86
2019-04-16T17:48:37.645Z,32.98
2019-04-16T17:51:26.494Z,33.11
2019-04-16T17:54:17.999Z,33.23
2019-04-16T17:57:05.733Z,33.35
2019-04-16T17:59:42.825Z,33.56
2019-04-16T18:02:37.428Z,33.69
2019-04-16T18:05:29.263Z,33.79
2019-04-16T18:08:17.984Z,33.91
2019-04-16T18:11:06.433Z,34.05
2019-04-16T18:13:45.529Z,34.13
2019-04-16T18:16:22.645Z,34.29
2019-04-16T18:19:12.152Z,34.38
2019-04-16T18:21:49.133Z,34.41
2019-04-16T18:24:27.974Z,34.49
2019-04-16T18:27:29.511Z,34.63
2019-04-16T18:30:30.420Z,34.78
2019-04-16T18:33:18.880Z,34.89
2019-04-16T18:36:26.606Z,34.95
2019-04-16T18:39:09.391Z,34.97
2019-04-16T18:41:46.753Z,35.10
2019-04-16T18:44:38.366Z,35.20
2019-04-16T18:47:36.603Z,35.34
2019-04-16T18:50:13.805Z,35.37
2019-04-16T18:52:43.658Z,35.73
2019-04-16T18:55:13.703Z,35.73
2019-04-16T18:57:43.454Z,35.69
2019-04-16T19:00:31.926Z,35.74
2019-04-16T19:03:00.636Z,35.78
2019-04-16T19:05:33.349Z,35.86
2019-04-16T19:08:03.484Z,35.98
2019-04-16T19:10:33.426Z,35.99
2019-04-16T19:13:09.701Z,36.13
2019-04-16T19:15:35.983Z,36.19
2019-04-16T19:18:19.343Z,36.32
2019-04-16T19:20:37.353Z,36.63
2019-04-16T19:23:07.000Z,36.81
2019-04-16T19:25:38.613Z,37.17
2019-04-16T19:28:08.639Z,37.22
2019-04-16T19:30:39.368Z,37.47
2019-04-16T19:33:09.077Z,37.50
2019-04-16T19:35:38.808Z,37.50
2019-04-16T19:38:08.506Z,37.46
2019-04-16T19:40:38.707Z,37.46
2019-04-16T19:43:08.239Z,37.66
2019-04-16T19:45:40.612Z,37.70
2019-04-16T19:48:10.162Z,37.71
2019-04-16T19:50:39.761Z,37.80
2019-04-16T19:53:14.950Z,38.01
2019-04-16T19:55:45.946Z,38.01
2019-04-16T19:58:15.818Z,38.31
2019-04-16T20:00:45.455Z,38.31
2019-04-16T20:03:16.673Z,38.08
2019-04-16T20:05:46.370Z,38.08
2019-04-16T20:08:15.982Z,38.31
2019-04-16T20:10:49.060Z,38.44
2019-04-16T20:13:18.672Z,38.57
2019-04-16T20:15:48.175Z,38.57
2019-04-16T20:18:20.056Z,38.57
2019-04-16T20:20:51.308Z,38.81
2019-04-16T20:23:21.574Z,39.02
2019-04-16T20:25:51.372Z,39.11
2019-04-16T20:28:22.047Z,39.18
2019-04-16T20:30:57.361Z,39.27
2019-04-16T20:33:23.008Z,39.31
2019-04-16T20:35:53.276Z,39.28
2019-04-16T20:38:22.926Z,39.33
2019-04-16T20:40:53.395Z,39.55
2019-04-16T20:43:23.623Z,39.73
2019-04-16T20:45:53.836Z,40.34
2019-04-16T20:48:25.928Z,40.34
2019-04-16T20:50:59.341Z,40.21
2019-04-16T20:53:27.256Z,40.77
2019-04-16T20:56:00.366Z,40.77
2019-04-16T20:58:32.426Z,41.33
2019-04-16T21:01:03.273Z,41.60
2019-04-16T21:03:33.138Z,41.89
2019-04-16T21:06:07.824Z,41.99
2019-04-16T21:08:36.621Z,42.21
2019-04-16T21:11:09.627Z,42.38
2019-04-16T21:13:39.705Z,42.22
2019-04-16T21:16:16.953Z,42.25
2019-04-16T21:18:46.735Z,42.22
2019-04-16T21:21:16.598Z,41.99
2019-04-16T21:23:48.462Z,42.40
2019-04-16T21:26:19.937Z,42.39
2019-04-16T21:29:21.674Z,42.62
2019-04-16T21:31:55.640Z,42.86
2019-04-16T21:34:34.791Z,42.98
2019-04-16T21:37:23.296Z,43.47
2019-04-16T21:40:01.403Z,43.47
2019-04-16T21:42:34.251Z,43.67
2019-04-16T21:45:03.701Z,43.59
2019-04-16T21:47:33.414Z,43.59
2019-04-16T21:50:03.189Z,43.82
2019-04-16T21:52:35.478Z,44.11
2019-04-16T21:55:05.831Z,44.67
2019-04-16T21:57:35.634Z,45.37
2019-04-16T22:00:08.899Z,45.85
2019-04-16T22:02:39.261Z,46.29
2019-04-16T22:05:10.092Z,47.29
2019-04-16T22:07:39.614Z,47.29
2019-04-16T22:10:09.278Z,47.40
2019-04-16T22:12:39.035Z,46.41
2019-04-16T22:15:09.073Z,46.41
2019-04-16T22:17:39.422Z,46.15
2019-04-16T22:20:09.194Z,46.07
2019-04-16T22:22:38.697Z,46.42
2019-04-16T22:25:08.330Z,46.36
2019-04-16T22:27:39.682Z,45.96
2019-04-16T22:30:10.143Z,45.69
2019-04-16T22:32:39.734Z,45.69
2019-04-16T22:35:09.291Z,45.70
2019-04-16T22:37:38.801Z,45.70
2019-04-16T22:40:45.717Z,45.37
2019-04-16T22:43:46.206Z,45.44
2019-04-16T22:46:37.244Z,45.34
2019-04-16T22:49:06.833Z,44.92
2019-04-16T22:51:36.308Z,44.55
2019-04-16T22:54:06.847Z,44.30
2019-04-16T22:57:01.420Z,44.30
2019-04-16T22:59:30.642Z,44.04
2019-04-16T23:02:00.557Z,44.09
2019-04-16T23:04:29.983Z,44.08
2019-04-16T23:06:59.629Z,44.06
2019-04-16T23:09:30.775Z,43.99
2019-04-16T23:12:00.815Z,43.80
2019-04-16T23:14:34.265Z,44.08
2019-04-16T23:17:02.120Z,44.08
2019-04-16T23:19:32.452Z,44.16
2019-04-16T23:22:02.087Z,44.16
2019-04-16T23:24:31.746Z,43.96
2019-04-16T23:27:04.521Z,43.57
2019-04-16T23:29:32.689Z,43.85
2019-04-16T23:32:02.422Z,43.85
2019-04-16T23:34:34.859Z,43.53
2019-04-16T23:37:04.371Z,43.49
2019-04-16T23:39:36.499Z,43.58
2019-04-16T23:42:05.369Z,43.99
2019-04-16T23:44:58.587Z,44.30
2019-04-16T23:47:39.616Z,44.30
2019-04-16T23:50:22.027Z,44.70
2019-04-16T23:53:16.666Z,45.13
2019-04-16T23:56:05.067Z,46.18
2019-04-16T23:58:43.126Z,45.99
